Time;durP1;ratioP1;P1;durP2;ratioP2;P2;SDS_P1;SDS_P2;PMS_P1;PMS_P2;Temp;Humidity;BMP_temperature;BMP_pressure;BME280_temperature;BME280_humidity;BME280_pressure;Samples;Min_cycle;Max_cycle;Signal;HPM_P1;HPM_P2
2022/05/11 00:01:18;;;;;;;4.88;3.42;;;;;;;;;;4973615;28;20102;-72
2022/05/11 00:03:44;;;;;;;6.07;3.58;;;;;;;;;;4987651;28;20065;-72
2022/05/11 00:06:10;;;;;;;5.82;3.30;;;;;;;;;;4976026;28;20030;-72
2022/05/11 00:08:36;;;;;;;3.20;2.67;;;;;;;;;;4975956;28;20053;-71
2022/05/11 00:11:04;;;;;;;4.53;2.95;;;;;;;;;;4978017;28;20546;-72
2022/05/11 00:13:30;;;;;;;;;;;16.30;91.80;;;;;;4972748;28;20733;-70
2022/05/11 00:15:56;;;;;;;4.18;3.15;;;;;;;;;;4988295;28;19955;-71
2022/05/11 00:18:22;;;;;;;4.93;3.05;;;;;;;;;;4986017;28;20058;-72
2022/05/11 00:20:49;;;;;;;6.00;3.15;;;;;;;;;;4977770;28;20089;-72
2022/05/11 00:23:15;;;;;;;6.90;3.40;;;;;;;;;;4983864;28;20076;-72
2022/05/11 00:25:41;;;;;;;3.45;2.70;;;;;;;;;;4986782;28;20034;-72
2022/05/11 00:28:07;;;;;;;6.88;3.10;;;;;;;;;;4973426;28;20064;-72
2022/05/11 00:30:33;;;;;;;4.90;2.80;;;;;;;;;;4985649;28;20022;-71
2022/05/11 00:33:00;;;;;;;5.20;2.72;;;16.30;91.80;;;;;;4977789;28;20030;-72
2022/05/11 00:35:27;;;;;;;5.93;3.30;;;;;;;;;;4977323;28;20092;-72
2022/05/11 00:37:54;;;;;;;7.18;3.72;;;;;;;;;;4975776;28;20050;-71
2022/05/11 00:40:22;;;;;;;4.47;2.97;;;16.20;92.10;;;;;;4988802;28;20093;-72
2022/05/11 00:42:48;;;;;;;6.65;2.85;;;;;;;;;;4972267;28;20846;-72
2022/05/11 00:45:14;;;;;;;4.65;3.28;;;;;;;;;;4975024;28;20027;-71
2022/05/11 00:47:43;;;;;;;4.80;2.85;;;;;;;;;;4982568;28;20041;-72
2022/05/11 00:50:19;;;;;;;6.38;3.20;;;16.20;91.80;;;;;;4982458;28;20158;-73
2022/05/11 00:52:54;;;;;;;6.25;3.65;;;;;;;;;;4976715;28;20443;-72
2022/05/11 00:55:23;;;;;;;4.57;3.10;;;;;;;;;;4975920;28;20399;-71
2022/05/11 00:57:57;;;;;;;4.40;3.33;;;;;;;;;;4972814;28;20433;-72
2022/05/11 01:00:24;;;;;;;6.90;3.60;;;;;;;;;;4970388;28;20420;-72
2022/05/11 01:02:54;;;;;;;3.22;2.88;;;;;;;;;;4977300;28;20039;-72
2022/05/11 01:05:22;;;;;;;3.30;2.28;;;;;;;;;;4976794;28;20027;-71
2022/05/11 01:07:48;;;;;;;4.80;3.40;;;;;;;;;;4976387;28;20712;-72
2022/05/11 01:10:14;;;;;;;5.35;3.80;;;;;;;;;;4975160;28;20678;-71
2022/05/11 01:12:42;;;;;;;5.35;3.15;;;;;;;;;;4972947;28;20531;-71
2022/05/11 01:15:09;;;;;;;4.05;3.28;;;;;;;;;;4986395;28;20531;-71
2022/05/11 01:17:36;;;;;;;4.93;3.50;;;;;;;;;;4983409;28;20407;-72
2022/05/11 01:20:04;;;;;;;7.55;3.42;;;;;;;;;;4983267;28;20080;-72
2022/05/11 01:22:34;;;;;;;5.07;3.15;;;;;;;;;;4987021;28;20075;-72
2022/05/11 01:25:00;;;;;;;7.07;3.85;;;;;;;;;;4972883;28;20061;-70
2022/05/11 01:27:26;;;;;;;4.25;2.95;;;;;;;;;;4985279;28;20089;-72
2022/05/11 01:29:53;;;;;;;5.85;2.83;;;;;;;;;;4983712;28;20034;-72
2022/05/11 01:32:20;;;;;;;5.18;3.40;;;;;;;;;;4980853;28;20031;-71
2022/05/11 01:34:47;;;;;;;4.13;3.47;;;;;;;;;;4976309;28;20066;-72
2022/05/11 01:37:13;;;;;;;4.97;3.30;;;;;;;;;;4973750;28;20042;-71
2022/05/11 01:39:39;;;;;;;5.18;3.13;;;;;;;;;;4971976;28;20030;-72
2022/05/11 01:42:05;;;;;;;4.97;3.17;;;;;;;;;;4984488;28;20416;-72
2022/05/11 01:44:31;;;;;;;3.45;2.63;;;;;;;;;;4978221;28;20091;-72
2022/05/11 01:46:58;;;;;;;4.97;2.67;;;;;;;;;;4976597;28;20027;-72
2022/05/11 01:49:25;;;;;;;5.38;3.67;;;;;;;;;;4975998;28;20037;-72
2022/05/11 01:51:51;;;;;;;4.20;3.08;;;;;;;;;;4971638;28;20026;-71
2022/05/11 01:54:17;;;;;;;5.80;2.92;;;;;;;;;;4984137;28;20011;-73
2022/05/11 01:56:43;;;;;;;4.18;2.50;;;;;;;;;;4988457;28;20043;-71
2022/05/11 01:59:10;;;;;;;4.45;3.47;;;;;;;;;;4982221;28;20102;-72
2022/05/11 02:01:37;;;;;;;3.50;2.72;;;;;;;;;;4976615;28;20038;-72
2022/05/11 02:04:03;;;;;;;5.03;3.03;;;;;;;;;;4973097;28;20027;-72
2022/05/11 02:09:14;;;;;;;5.15;2.58;;;;;;;;;;4988615;28;20443;-71
2022/05/11 02:11:41;;;;;;;5.28;2.35;;;;;;;;;;4990008;28;20030;-72
2022/05/11 02:14:07;;;;;;;4.32;2.80;;;15.40;99.90;;;;;;4985344;28;20031;-72
2022/05/11 02:16:33;;;;;;;5.18;3.00;;;;;;;;;;4979877;28;20460;-72
2022/05/11 02:18:59;;;;;;;4.53;2.67;;;;;;;;;;4976049;28;20764;-72
2022/05/11 02:21:25;;;;;;;3.92;2.72;;;;;;;;;;4976671;28;20046;-72
2022/05/11 02:23:52;;;;;;;5.65;3.45;;;;;;;;;;4980226;28;20420;-72
2022/05/11 02:26:19;;;;;;;7.75;2.70;;;;;;;;;;4982144;28;20479;-72
2022/05/11 02:28:45;;;;;;;3.50;2.42;;;;;;;;;;4988374;28;20049;-72
2022/05/11 02:31:11;;;;;;;3.83;2.90;;;;;;;;;;4975685;28;20503;-72
2022/05/11 02:33:37;;;;;;;5.97;3.17;;;;;;;;;;4988752;28;20034;-72
2022/05/11 02:36:03;;;;;;;4.18;3.00;;;;;;;;;;4978559;28;20038;-71
2022/05/11 02:38:33;;;;;;;3.25;2.33;;;;;;;;;;4979705;28;20046;-72
2022/05/11 02:40:59;;;;;;;4.35;2.72;;;;;;;;;;4980092;28;20031;-72
2022/05/11 02:43:26;;;;;;;6.35;2.80;;;;;;;;;;4978648;28;20128;-72
2022/05/11 02:45:52;;;;;;;4.15;2.70;;;;;;;;;;4973998;28;20661;-72
2022/05/11 02:48:20;;;;;;;4.75;2.42;;;;;;;;;;4976444;28;20516;-72
2022/05/11 02:50:46;;;;;;;;;;;;;;;;;;4984739;28;20484;-71
2022/05/11 02:53:13;;;;;;;3.55;2.25;;;;;;;;;;4984391;28;19910;-72
2022/05/11 02:55:40;;;;;;;5.75;3.10;;;;;;;;;;4975724;28;20046;-71
2022/05/11 02:58:06;;;;;;;3.08;2.40;;;;;;;;;;4989171;28;20049;-72
2022/05/11 03:00:33;;;;;;;3.58;2.63;;;;;;;;;;4987979;28;20475;-72
2022/05/11 03:03:00;;;;;;;3.58;2.85;;;;;;;;;;4976379;28;20554;-72
2022/05/11 03:05:26;;;;;;;5.00;4.10;;;;;;;;;;4981927;28;20044;-72
2022/05/11 03:07:52;;;;;;;5.25;2.90;;;;;;;;;;4986589;28;20069;-71
2022/05/11 03:10:18;;;;;;;5.28;2.83;;;;;;;;;;4977907;28;20054;-72
2022/05/11 03:12:44;;;;;;;5.25;2.78;;;;;;;;;;4973670;28;20523;-73
2022/05/11 03:15:11;;;;;;;5.47;3.00;;;;;;;;;;4986335;28;20030;-73
2022/05/11 03:17:37;;;;;;;5.95;3.15;;;;;;;;;;4980325;28;20097;-73
2022/05/11 03:20:04;;;;;;;5.63;2.95;;;;;;;;;;4979251;28;20535;-72
2022/05/11 03:22:30;;;;;;;3.63;2.45;;;;;;;;;;4989772;28;20081;-72
2022/05/11 03:24:56;;;;;;;4.20;2.80;;;;;;;;;;4975204;28;20022;-72
2022/05/11 03:27:22;;;;;;;2.55;2.13;;;;;;;;;;4986526;28;20053;-71
2022/05/11 03:29:48;;;;;;;5.53;2.67;;;;;;;;;;4979253;28;20440;-71
2022/05/11 03:34:59;;;;;;;5.43;3.10;;;;;;;;;;4978751;28;20414;-72
2022/05/11 03:37:25;;;;;;;9.65;2.80;;;;;;;;;;4974508;28;20039;-72
2022/05/11 03:39:51;;;;;;;5.43;2.85;;;;;;;;;;4989556;28;20072;-72
2022/05/11 03:42:19;;;;;;;4.88;3.47;;;14.70;92.90;;;;;;4976200;28;20710;-73
2022/05/11 03:44:45;;;;;;;4.18;3.13;;;;;;;;;;4983751;28;20034;-72
2022/05/11 03:47:11;;;;;;;5.50;3.35;;;;;;;;;;4982111;28;20082;-72
2022/05/11 03:49:37;;;;;;;4.75;3.63;;;14.50;99.90;;;;;;4975139;28;20404;-73
2022/05/11 03:52:04;;;;;;;4.90;3.22;;;;;;;;;;4988792;28;20022;-72
2022/05/11 03:54:30;;;;;;;4.87;3.13;;;;;;;;;;4990172;28;20081;-72
2022/05/11 03:56:56;;;;;;;6.03;2.33;;;;;;;;;;4985298;28;20786;-71
2022/05/11 03:59:22;;;;;;;4.53;2.83;;;;;;;;;;4982318;28;20038;-72
2022/05/11 04:01:48;;;;;;;4.80;2.97;;;;;;;;;;4975744;28;20065;-72
2022/05/11 04:04:14;;;;;;;5.28;3.13;;;;;;;;;;4988884;28;20034;-72
2022/05/11 04:06:40;;;;;;;4.53;2.67;;;;;;;;;;4973373;28;20041;-71
2022/05/11 04:09:06;;;;;;;3.30;2.63;;;;;;;;;;4977063;28;20026;-72
2022/05/11 04:11:33;;;;;;;4.53;2.63;;;;;;;;;;4982023;28;20448;-71
2022/05/11 04:13:59;;;;;;;3.95;2.88;;;;;;;;;;4983685;28;20041;-72
2022/05/11 04:16:25;;;;;;;8.73;4.55;;;;;;;;;;4973084;28;20030;-72
2022/05/11 04:18:52;;;;;;;6.55;3.30;;;;;;;;;;4987716;28;20510;-71
2022/05/11 04:21:18;;;;;;;5.82;3.95;;;;;;;;;;4975283;28;20023;-73
2022/05/11 04:23:44;;;;;;;5.10;3.05;;;;;;;;;;4991715;28;20511;-71
2022/05/11 04:26:11;;;;;;;5.75;2.50;;;;;;;;;;4977451;28;20030;-73
2022/05/11 04:28:39;;;;;;;5.35;2.80;;;;;;;;;;4973703;28;20031;-72
2022/05/11 04:31:06;;;;;;;7.60;3.17;;;;;;;;;;4987316;28;20045;-72
2022/05/11 04:33:33;;;;;;;6.18;3.47;;;;;;;;;;4984579;28;20022;-71
2022/05/11 04:35:59;;;;;;;3.42;2.83;;;;;;;;;;4977217;28;20042;-72
2022/05/11 04:38:25;;;;;;;2.72;2.45;;;;;;;;;;4980966;28;20040;-71
2022/05/11 04:40:51;;;;;;;3.95;2.90;;;;;;;;;;4984964;28;20110;-72
2022/05/11 04:43:17;;;;;;;6.03;3.28;;;;;;;;;;4975327;28;20061;-72
2022/05/11 04:45:44;;;;;;;4.85;3.10;;;;;;;;;;4972076;28;20401;-72
2022/05/11 04:48:10;;;;;;;4.85;2.95;;;;;;;;;;4975673;28;20059;-72
2022/05/11 04:50:38;;;;;;;4.05;2.60;;;14.30;94.40;;;;;;4982121;28;20129;-72
2022/05/11 04:53:04;;;;;;;5.07;3.30;;;;;;;;;;4983526;28;20131;-71
2022/05/11 04:55:30;;;;;;;4.30;2.88;;;;;;;;;;4972458;28;20530;-72
2022/05/11 04:57:56;;;;;;;3.92;2.63;;;;;;;;;;4987997;28;20035;-72
2022/05/11 05:00:24;;;;;;;3.33;2.67;;;;;;;;;;4974253;28;20030;-72
2022/05/11 05:02:50;;;;;;;2.72;2.45;;;;;;;;;;4979166;28;20027;-72
2022/05/11 05:05:18;;;;;;;5.75;3.22;;;14.50;94.20;;;;;;4991260;28;20037;-71
2022/05/11 05:07:44;;;;;;;6.07;3.65;;;;;;;;;;4974727;28;20030;-73
2022/05/11 05:10:12;;;;;;;8.38;3.75;;;;;;;;;;4986116;28;20031;-72
2022/05/11 05:12:38;;;;;;;8.60;3.03;;;;;;;;;;4984664;28;20105;-73
2022/05/11 05:15:05;;;;;;;6.07;3.80;;;;;;;;;;4986085;28;20474;-72
2022/05/11 05:17:31;;;;;;;6.40;3.80;;;;;;;;;;4981062;28;20050;-72
2022/05/11 05:19:57;;;;;;;6.75;3.30;;;;;;;;;;4976221;28;20648;-72
2022/05/11 05:22:23;;;;;;;5.50;2.88;;;;;;;;;;4987248;28;20041;-72
2022/05/11 05:24:50;;;;;;;9.50;4.07;;;;;;;;;;4984463;28;20681;-73
2022/05/11 05:27:17;;;;;;;3.75;3.00;;;15.00;94.10;;;;;;4986701;28;20058;-72
2022/05/11 05:32:33;;;;;;;5.78;3.83;;;;;;;;;;4976395;28;20089;-70
2022/05/11 05:35:00;;;;;;;4.78;3.30;;;;;;;;;;4977031;28;20056;-66
2022/05/11 05:37:26;;;;;;;5.47;3.10;;;;;;;;;;4985331;28;20047;-66
2022/05/11 05:39:52;;;;;;;5.60;3.92;;;;;;;;;;4988221;28;20056;-67
2022/05/11 05:42:19;;;;;;;6.43;4.38;;;;;;;;;;4988667;28;20053;-65
2022/05/11 05:44:46;;;;;;;6.00;3.75;;;;;;;;;;4991734;28;20431;-66
2022/05/11 05:47:13;;;;;;;7.63;3.88;;;;;;;;;;4989327;28;20080;-66
2022/05/11 05:49:39;;;;;;;4.80;3.40;;;;;;;;;;4987712;28;20061;-67
2022/05/11 05:52:06;;;;;;;11.23;4.05;;;;;;;;;;4990459;28;20053;-66
2022/05/11 05:54:33;;;;;;;4.95;3.13;;;;;;;;;;4987251;28;20050;-70
2022/05/11 05:56:59;;;;;;;7.38;3.53;;;;;;;;;;4983257;28;20039;-68
2022/05/11 05:59:25;;;;;;;5.68;3.20;;;;;;;;;;4981557;28;20030;-68
2022/05/11 06:01:51;;;;;;;6.07;3.72;;;;;;;;;;4976378;28;20551;-68
2022/05/11 06:04:17;;;;;;;11.32;5.22;;;17.00;99.90;;;;;;4987622;28;20452;-68
2022/05/11 06:06:43;;;;;;;7.93;3.72;;;;;;;;;;4988494;28;20069;-69
2022/05/11 06:09:09;;;;;;;5.20;3.45;;;;;;;;;;4990300;28;20034;-69
2022/05/11 06:11:38;;;;;;;4.75;2.80;;;;;;;;;;4982087;28;20026;-68
2022/05/11 06:14:05;;;;;;;6.00;4.03;;;;;;;;;;4980340;28;20041;-61
2022/05/11 06:16:32;;;;;;;6.88;3.70;;;;;;;;;;4985730;28;20062;-62
2022/05/11 06:18:57;;;;;;;5.05;3.80;;;18.20;99.90;;;;;;4974812;28;20061;-61
2022/05/11 06:21:24;;;;;;;4.38;2.97;;;;;;;;;;4976851;28;20026;-64
2022/05/11 06:23:50;;;;;;;5.65;3.60;;;;;;;;;;4979339;28;20066;-65
2022/05/11 06:26:16;;;;;;;5.18;2.75;;;;;;;;;;4978844;28;20026;-65
2022/05/11 06:28:43;;;;;;;4.75;3.20;;;;;;;;;;4979422;28;20561;-65
2022/05/11 06:31:09;;;;;;;4.78;4.25;;;;;;;;;;4974684;28;20034;-65
2022/05/11 06:33:35;;;;;;;3.42;2.50;;;;;;;;;;4988008;28;20042;-65
2022/05/11 06:36:05;;;;;;;5.53;3.75;;;;;;;;;;4987134;28;20026;-65
2022/05/11 06:38:31;;;;;;;3.97;2.83;;;;;;;;;;4982403;28;20049;-65
2022/05/11 06:40:57;;;;;;;2.78;1.92;;;;;;;;;;4977544;28;20479;-65
2022/05/11 06:43:24;;;;;;;3.20;2.28;;;;;;;;;;4987207;28;20104;-64
2022/05/11 06:45:50;;;;;;;3.10;2.72;;;;;;;;;;4988830;28;20062;-66
2022/05/11 06:48:16;;;;;;;3.58;2.65;;;;;;;;;;4989113;28;20507;-65
2022/05/11 06:50:43;;;;;;;3.60;1.97;;;;;;;;;;4980316;28;20038;-66
2022/05/11 06:53:11;;;;;;;3.20;1.77;;;;;;;;;;4980963;28;20035;-66
2022/05/11 06:59:20;;;;;;;1.95;1.40;;;29.10;67.40;;;;;;4983025;28;20538;-66
2022/05/11 07:01:14;;;;;;;1.52;1.02;;;;;;;;;;4974620;28;20031;-66
2022/05/11 07:03:40;;;;;;;2.53;1.15;;;;;;;;;;4988361;28;20049;-66
2022/05/11 07:06:06;;;;;;;3.70;1.08;;;;;;;;;;4988883;28;20026;-67
2022/05/11 07:08:34;;;;;;;2.08;1.42;;;33.80;40.90;;;;;;4989204;28;20046;-67
2022/05/11 07:13:45;;;;;;;5.25;1.15;;;;;;;;;;4978567;28;20042;-67
2022/05/11 07:16:11;;;;;;;2.13;1.45;;;;;;;;;;4975933;28;20065;-67
2022/05/11 07:18:37;;;;;;;2.05;1.65;;;35.70;52.20;;;;;;4973760;28;20465;-66
2022/05/11 07:21:03;;;;;;;3.63;1.73;;;;;;;;;;4977838;28;20034;-67
2022/05/11 07:23:30;;;;;;;2.20;1.52;;;;;;;;;;4977517;28;20039;-67
2022/05/11 07:25:55;;;;;;;2.80;2.30;;;36.60;51.40;;;;;;4977382;28;20026;-66
2022/05/11 07:28:22;;;;;;;3.25;1.73;;;;;;;;;;4989452;28;20034;-66
2022/05/11 07:30:48;;;;;;;7.57;2.40;;;36.00;50.30;;;;;;4973062;28;20027;-66
2022/05/11 07:33:15;;;;;;;2.65;1.48;;;;;;;;;;4976819;28;20058;-67
2022/05/11 07:35:43;;;;;;;2.15;1.23;;;36.10;38.40;;;;;;4977748;28;20126;-67
2022/05/11 07:38:14;;;;;;;3.85;1.42;;;36.80;44.10;;;;;;4976677;28;20482;-66
2022/05/11 07:40:41;;;;;;;4.05;1.60;;;35.70;31.30;;;;;;4986832;28;20604;-67
2022/05/11 07:43:08;;;;;;;1.17;1.02;;;36.50;48.50;;;;;;4975094;28;20153;-66
2022/05/11 07:45:35;;;;;;;12.48;1.48;;;;;;;;;;4972288;28;20065;-67
2022/05/11 07:48:01;;;;;;;7.47;1.00;;;;;;;;;;4976255;28;20139;-67
2022/05/11 07:50:26;;;;;;;4.60;1.60;;;35.80;40.50;;;;;;4989337;28;20038;-66
2022/05/11 07:52:54;;;;;;;3.67;1.90;;;;;;;;;;4978871;28;20026;-67
2022/05/11 07:55:20;;;;;;;3.55;1.63;;;;;;;;;;4988860;28;20045;-67
2022/05/11 08:00:32;;;;;;;3.22;2.42;;;;;;;;;;4994107;28;20053;-67
2022/05/11 08:02:57;;;;;;;1.80;1.70;;;36.60;47.60;;;;;;4977015;28;20496;-65
2022/05/11 08:05:24;;;;;;;6.28;3.03;;;;;;;;;;4992265;28;20037;-67
2022/05/11 08:07:55;;;;;;;4.50;1.27;;;37.20;31.30;;;;;;4976826;28;20041;-67
2022/05/11 08:10:21;;;;;;;4.07;3.67;;;;;;;;;;4988751;28;20506;-66
2022/05/11 08:12:49;;;;;;;6.15;2.47;;;;;;;;;;4988249;28;20062;-67
2022/05/11 08:15:16;;;;;;;2.67;2.03;;;;;;;;;;4975041;28;20465;-67
2022/05/11 08:17:43;;;;;;;7.00;1.70;;;;;;;;;;4982291;28;20488;-67
2022/05/11 08:20:13;;;;;;;13.80;3.33;;;;;;;;;;4980741;28;20030;-66
2022/05/11 08:22:40;;;;;;;1.13;0.90;;;;;;;;;;4976356;28;20046;-66
2022/05/11 08:25:06;;;;;;;1.88;1.10;;;36.60;34.50;;;;;;4973227;28;20026;-67
2022/05/11 08:27:33;;;;;;;2.58;1.33;;;;;;;;;;5000368;28;20026;-67
2022/05/11 08:35:29;;;;;;;1.33;1.08;;;;;;;;;;4979597;28;20084;-66
2022/05/11 08:37:55;;;;;;;1.65;1.40;;;;;;;;;;4976433;28;20043;-67
2022/05/11 08:40:40;;;;;;;3.92;1.40;;;;;;;;;;4988376;28;20546;-66
2022/05/11 08:43:10;;;;;;;2.05;1.05;;;35.10;30.00;;;;;;4973193;28;20601;-66
2022/05/11 08:45:41;;;;;;;5.38;1.52;;;;;;;;;;4988353;28;20579;-67
2022/05/11 08:48:10;;;;;;;3.45;1.13;;;35.30;29.60;;;;;;4984699;28;20045;-67
2022/05/11 08:50:38;;;;;;;2.92;1.27;;;35.00;28.70;;;;;;4978681;28;20529;-66
2022/05/11 08:53:12;;;;;;;2.17;1.10;;;35.50;29.80;;;;;;4976565;28;20073;-67
2022/05/11 08:55:52;;;;;;;2.70;1.40;;;;;;;;;;4975977;28;20081;-66
2022/05/11 08:58:56;;;;;;;1.27;1.00;;;35.50;29.40;;;;;;4983037;28;20088;-65
2022/05/11 09:01:29;;;;;;;1.20;0.65;;;34.90;28.90;;;;;;4992611;28;20084;-67
2022/05/11 09:03:55;;;;;;;4.13;1.23;;;;;;;;;;5004559;28;20804;-66
2022/05/11 09:06:24;;;;;;;3.70;1.67;;;;;;;;;;5005586;28;20052;-67
2022/05/11 09:08:50;;;;;;;3.50;1.38;;;;;;;;;;5004154;28;20052;-66
2022/05/11 09:11:16;;;;;;;;;;;;;;;;;;5005010;28;20046;-68
2022/05/11 09:13:42;;;;;;;;;;;;;;;;;;5004619;28;19960;-68
2022/05/11 09:16:37;;;;;;;;;;;35.60;28.50;;;;;;5004388;28;20511;-69
2022/05/11 09:19:23;;;;;;;1.30;1.08;;;35.70;28.00;;;;;;4989318;28;19921;-67
2022/05/11 09:21:55;;;;;;;1.88;1.40;;;35.30;28.10;;;;;;5002360;28;20037;-69
2022/05/11 09:24:28;;;;;;;0.65;0.65;;;;;;;;;;5006172;28;20534;-69
2022/05/11 09:27:03;;;;;;;1.25;1.15;;;;;;;;;;5004579;28;20053;-68
2022/05/11 09:29:37;;;;;;;1.50;1.40;;;;;;;;;;5003071;28;20037;-68
2022/05/11 09:32:27;;;;;;;1.80;1.10;;;34.40;28.90;;;;;;4995586;28;20040;-68
2022/05/11 09:34:53;;;;;;;1.75;0.98;;;;;;;;;;4987466;28;20087;-68
2022/05/11 09:37:36;;;;;;;2.65;1.17;;;;;;;;;;4985504;28;20130;-67
2022/05/11 09:40:20;;;;;;;2.08;0.88;;;35.40;44.80;;;;;;4983526;28;20034;-68
2022/05/11 09:42:54;;;;;;;0.85;0.70;;;36.00;28.20;;;;;;4987693;28;20077;-67
2022/05/11 09:45:49;;;;;;;1.92;0.90;;;36.60;29.10;;;;;;4992607;28;20761;-68
2022/05/11 09:48:22;;;;;;;3.77;0.80;;;36.10;36.40;;;;;;4983607;28;20066;-67
2022/05/11 09:50:53;;;;;;;2.53;1.55;;;36.30;45.40;;;;;;4986788;28;20285;-66
2022/05/11 09:53:27;;;;;;;1.65;1.30;;;36.00;28.50;;;;;;4986899;28;20492;-67
2022/05/11 09:55:54;;;;;;;1.40;1.17;;;;;;;;;;4986788;28;20038;-68
2022/05/11 09:58:30;;;;;;;2.88;1.10;;;;;;;;;;4986512;28;20042;-68
2022/05/11 10:01:14;;;;;;;1.98;1.25;;;34.70;29.40;;;;;;4971860;28;20022;-69
2022/05/11 10:03:45;;;;;;;2.95;1.88;;;;;;;;;;4986984;28;20530;-67
2022/05/11 10:06:12;;;;;;;2.33;2.13;;;;;;;;;;4986861;28;20037;-68
2022/05/11 10:08:39;;;;;;;2.17;1.85;;;;;;;;;;4983124;28;20061;-66
2022/05/11 10:11:23;;;;;;;2.10;1.90;;;;;;;;;;4980541;28;20072;-67
2022/05/11 10:13:49;;;;;;;2.67;2.47;;;;;;;;;;4973375;28;20027;-68
2022/05/11 10:22:03;;;;;;;5.43;1.73;;;35.10;46.70;;;;;;4983215;28;20069;-66
2022/05/11 10:24:47;;;;;;;3.45;2.15;;;;;;;;;;4972656;28;20046;-71
2022/05/11 10:27:40;;;;;;;1.27;1.10;;;;;;;;;;4978050;28;20085;-66
2022/05/11 10:30:06;;;;;;;5.80;1.65;;;;;;;;;;4987554;28;20508;-65
2022/05/11 10:32:44;;;;;;;4.05;2.55;;;;;;;;;;4988246;28;20042;-68
2022/05/11 10:35:17;;;;;;;4.10;2.22;;;;;;;;;;4986153;28;20033;-68
2022/05/11 10:38:01;;;;;;;3.33;2.50;;;;;;;;;;4988524;28;20074;-69
2022/05/11 10:40:41;;;;;;;2.42;1.77;;;;;;;;;;4983681;28;20089;-68
2022/05/11 10:43:29;;;;;;;3.42;2.80;;;34.10;29.60;;;;;;4975990;28;20046;-67
2022/05/11 10:46:27;;;;;;;1.98;1.55;;;;;;;;;;4973146;28;20034;-70
2022/05/11 10:49:11;;;;;;;2.20;2.05;;;;;;;;;;5007560;28;20038;-67
2022/05/11 10:52:03;;;;;;;2.35;2.15;;;33.30;49.20;;;;;;5019094;28;20564;-65
2022/05/11 10:54:51;;;;;;;2.85;2.63;;;;;;;;;;5023959;28;20033;-69
2022/05/11 10:57:25;;;;;;;3.00;2.30;;;34.00;49.10;;;;;;5022504;28;20083;-68
2022/05/11 11:00:04;;;;;;;2.70;2.47;;;;;;;;;;5022627;28;20033;-68
2022/05/11 11:02:51;;;;;;;3.88;3.35;;;32.80;35.70;;;;;;5002633;28;20041;-67
2022/05/11 11:05:21;;;;;;;5.18;2.60;;;;;;;;;;5020567;28;20465;-69
2022/05/11 11:07:52;;;;;;;4.80;3.08;;;;;;;;;;5021033;28;20021;-68
2022/05/11 11:10:40;;;;;;;3.30;3.03;;;32.70;52.70;;;;;;5020616;28;20033;-69
2022/05/11 11:13:36;;;;;;;4.88;3.25;;;;;;;;;;5019187;28;20036;-68
2022/05/11 11:16:03;;;;;;;4.03;3.67;;;;;;;;;;5016798;28;20045;-69
2022/05/11 11:18:31;;;;;;;4.40;3.90;;;;;;;;;;5025666;28;20049;-68
2022/05/11 11:21:01;;;;;;;4.63;4.25;;;;;;;;;;5021287;28;20033;-69
2022/05/11 11:23:30;;;;;;;5.72;5.32;;;30.60;59.30;;;;;;5011259;28;20458;-70
2022/05/11 11:25:57;;;;;;;6.82;5.93;;;;;;;;;;4984248;28;20106;-69
2022/05/11 11:28:25;;;;;;;7.03;6.43;;;;;;;;;;4977173;28;20076;-72
2022/05/11 11:31:00;;;;;;;7.82;6.18;;;;;;;;;;4973979;28;20030;-69
2022/05/11 11:33:30;;;;;;;6.40;6.00;;;;;;;;;;4971541;28;20039;-69
2022/05/11 11:36:01;;;;;;;6.30;5.68;;;;;;;;;;4985177;28;20030;-69
2022/05/11 11:38:39;;;;;;;6.18;5.78;;;28.90;53.00;;;;;;4988996;28;20430;-69
2022/05/11 11:41:21;;;;;;;6.90;6.40;;;29.10;43.80;;;;;;4987690;28;20026;-69
2022/05/11 11:44:05;;;;;;;6.90;6.38;;;29.30;42.60;;;;;;4985022;28;20043;-69
2022/05/11 11:46:34;;;;;;;5.82;5.43;;;;;;;;;;4978150;28;20038;-69
2022/05/11 11:49:22;;;;;;;7.70;6.85;;;;;;;;;;4974250;28;20084;-69
2022/05/11 11:51:50;;;;;;;7.30;6.80;;;;;;;;;;4989951;28;20068;-71
2022/05/11 11:54:25;;;;;;;7.38;6.68;;;;;;;;;;4985772;28;20034;-69
2022/05/11 11:56:54;;;;;;;7.00;6.38;;;28.60;63.00;;;;;;4977679;28;20060;-68
2022/05/11 11:59:25;;;;;;;6.80;6.05;;;28.50;42.60;;;;;;4983555;28;20484;-71
2022/05/11 12:01:56;;;;;;;6.50;5.93;;;;;;;;;;4992780;28;20031;-71
2022/05/11 12:04:32;;;;;;;7.32;6.85;;;;;;;;;;4988212;28;20081;-71
2022/05/11 12:15:37;;;;;;;8.48;7.18;;;27.60;54.70;;;;;;4985698;28;20550;-69
2022/05/11 12:18:20;;;;;;;6.00;5.60;;;;;;;;;;4985464;28;20070;-71
2022/05/11 12:20:46;;;;;;;6.50;6.15;;;;;;;;;;4974025;28;20038;-70
2022/05/11 12:23:18;;;;;;;6.13;5.57;;;;;;;;;;4978438;28;20057;-69
2022/05/11 12:25:50;;;;;;;5.82;5.43;;;;;;;;;;4986226;28;20034;-70
2022/05/11 12:28:21;;;;;;;5.25;4.95;;;;;;;;;;4974796;28;20038;-70
2022/05/11 12:30:47;;;;;;;5.90;5.50;;;27.70;60.40;;;;;;4987260;28;20034;-70
2022/05/11 12:33:23;;;;;;;6.53;6.13;;;28.20;41.00;;;;;;4976322;28;20370;-68
2022/05/11 12:35:49;;;;;;;7.88;5.50;;;;;;;;;;4976504;28;20412;-70
2022/05/11 12:38:25;;;;;;;6.00;5.60;;;;;;;;;;4977562;28;20051;-68
2022/05/11 12:40:53;;;;;;;5.27;4.97;;;;;;;;;;4978236;28;20513;-68
2022/05/11 12:43:26;;;;;;;5.65;5.25;;;;;;;;;;4989650;28;20704;-67
2022/05/11 12:45:54;;;;;;;6.88;6.32;;;;;;;;;;4972490;28;20125;-68
2022/05/11 12:48:24;;;;;;;4.80;4.45;;;;;;;;;;4984736;28;20045;-68
2022/05/11 12:51:04;;;;;;;5.38;4.97;;;28.70;39.60;;;;;;4977100;28;20563;-68
2022/05/11 12:53:32;;;;;;;5.88;5.57;;;;;;;;;;4977079;28;20062;-68
2022/05/11 12:56:31;;;;;;;5.65;4.88;;;28.30;38.90;;;;;;4975514;28;20488;-68
2022/05/11 12:58:58;;;;;;;5.15;4.85;;;;;;;;;;4986104;28;20046;-67
2022/05/11 13:01:26;;;;;;;10.77;5.63;;;;;;;;;;4987946;28;20026;-67
2022/05/11 13:03:54;;;;;;;6.00;5.55;;;;;;;;;;4977767;28;20141;-68
2022/05/11 13:06:36;;;;;;;13.25;5.57;;;;;;;;;;4984899;28;20045;-68
2022/05/11 13:09:15;;;;;;;5.78;5.38;;;28.50;38.90;;;;;;4986194;28;20567;-67
2022/05/11 13:11:41;;;;;;;5.53;5.13;;;;;;;;;;4978187;28;20035;-68
2022/05/11 13:14:26;;;;;;;5.20;4.78;;;;;;;;;;4986278;28;20510;-68
2022/05/11 13:16:53;;;;;;;6.05;5.65;;;;;;;;;;4984413;28;20053;-68
2022/05/11 13:19:22;;;;;;;6.90;4.35;;;;;;;;;;4975311;28;20514;-68
2022/05/11 13:21:49;;;;;;;5.35;5.05;;;;;;;;;;4983483;28;20038;-68
2022/05/11 13:24:15;;;;;;;6.50;6.10;;;;;;;;;;4984636;28;20065;-68
2022/05/11 13:26:44;;;;;;;4.57;4.27;;;28.80;38.80;;;;;;4981928;28;20113;-68
2022/05/11 13:29:18;;;;;;;4.18;3.97;;;28.60;38.30;;;;;;4982844;28;20289;-68
2022/05/11 13:31:46;;;;;;;5.18;4.82;;;;;;;;;;4985330;28;20022;-68
2022/05/11 13:34:39;;;;;;;5.88;4.82;;;28.80;36.70;;;;;;4981462;28;20034;-68
2022/05/11 13:37:06;;;;;;;5.47;5.00;;;;;;;;;;4971807;28;20845;-67
2022/05/11 13:39:41;;;;;;;6.07;5.45;;;;;;;;;;4984814;28;20026;-69
2022/05/11 13:42:16;;;;;;;4.40;4.20;;;;;;;;;;4975264;28;20046;-67
2022/05/11 13:44:52;;;;;;;4.88;4.57;;;;;;;;;;4976030;28;20030;-68
2022/05/11 13:50:26;;;;;;;4.28;3.97;;;;;;;;;;4976516;28;20042;-68
2022/05/11 13:52:54;;;;;;;4.43;4.07;;;;;;;;;;4978628;28;20054;-68
2022/05/11 13:55:24;;;;;;;4.05;3.80;;;;;;;;;;4990713;28;20030;-68
2022/05/11 13:57:50;;;;;;;5.68;5.18;;;;;;;;;;4985751;28;30390;-69
2022/05/11 14:00:17;;;;;;;4.13;3.80;;;;;;;;;;4974959;28;20509;-67
2022/05/11 14:02:47;;;;;;;4.63;3.90;;;;;;;;;;4979796;28;20031;-68
2022/05/11 14:05:13;;;;;;;4.53;4.15;;;;;;;;;;4980863;28;20030;-66
2022/05/11 14:07:39;;;;;;;4.10;3.60;;;;;;;;;;4990016;28;20084;-68
2022/05/11 14:10:05;;;;;;;4.35;4.05;;;;;;;;;;4975437;28;20038;-68
2022/05/11 14:12:31;;;;;;;3.57;3.33;;;;;;;;;;4988117;28;20034;-68
2022/05/11 14:14:57;;;;;;;5.35;3.03;;;;;;;;;;4985562;28;20031;-69
2022/05/11 14:17:25;;;;;;;3.92;3.65;;;;;;;;;;4983852;28;20050;-68
2022/05/11 14:19:57;;;;;;;4.38;4.18;;;;;;;;;;4979184;28;20039;-68
2022/05/11 14:22:23;;;;;;;4.60;3.97;;;;;;;;;;4976915;28;20034;-68
2022/05/11 14:24:49;;;;;;;4.05;3.75;;;;;;;;;;4989968;28;20172;-68
2022/05/11 14:27:18;;;;;;;12.82;3.53;;;31.10;36.20;;;;;;4978156;28;20042;-69
2022/05/11 14:29:48;;;;;;;7.05;4.30;;;;;;;;;;4979311;28;20038;-68
2022/05/11 14:32:28;;;;;;;4.45;4.15;;;;;;;;;;4979129;28;20023;-69
2022/05/11 14:34:55;;;;;;;9.48;4.70;;;;;;;;;;4979165;28;20034;-69
2022/05/11 14:37:21;;;;;;;4.00;3.80;;;;;;;;;;4977427;28;20038;-67
2022/05/11 14:39:47;;;;;;;14.80;4.38;;;28.70;53.80;;;;;;4974309;28;20046;-68
2022/05/11 14:42:13;;;;;;;5.40;4.47;;;;;;;;;;4987504;28;20513;-68
2022/05/11 14:44:38;;;;;;;4.63;4.38;;;28.70;52.70;;;;;;4979784;28;20029;-69
2022/05/11 14:47:05;;;;;;;4.85;4.50;;;;;;;;;;4978681;28;20026;-68
2022/05/11 14:49:30;;;;;;;4.97;4.68;;;;;;;;;;4989638;28;20794;-69
2022/05/11 14:51:56;;;;;;;10.90;5.07;;;;;;;;;;4974108;28;20022;-68
2022/05/11 14:54:22;;;;;;;6.20;3.88;;;;;;;;;;4976620;28;20348;-67
2022/05/11 15:01:55;;;;;;;4.43;4.13;;;28.60;37.60;;;;;;4984525;28;20125;-68
2022/05/11 15:02:19;;;;;;;4.47;4.22;;;27.80;53.50;;;;;;4985763;28;20154;-68
2022/05/11 15:04:45;;;;;;;4.22;4.03;;;;;;;;;;4986653;28;20063;-69
2022/05/11 15:07:15;;;;;;;4.55;4.13;;;;;;;;;;4990330;28;20033;-70
2022/05/11 15:09:42;;;;;;;4.70;4.40;;;;;;;;;;4974684;28;20415;-69
2022/05/11 15:14:53;;;;;;;4.32;4.03;;;28.10;55.40;;;;;;4985748;28;20049;-70
2022/05/11 15:17:21;;;;;;;4.15;3.85;;;;;;;;;;4983028;28;20042;-71